Time;durP1;ratioP1;P1;durP2;ratioP2;P2;SDS_P1;SDS_P2;PMS_P1;PMS_P2;Temp;Humidity;BMP_temperature;BMP_pressure;BME280_temperature;BME280_humidity;BME280_pressure;Samples;Min_cycle;Max_cycle;Signal;HPM_P1;HPM_P2
2022/10/10 00:02:15;;;;;;;2.53;1.52;;;11.50;63.50;;;;;;5032581;28;20028;-82
2022/10/10 00:04:41;;;;;;;2.23;1.40;;;11.40;63.60;;;;;;5072478;28;20016;-82
2022/10/10 00:07:07;;;;;;;2.67;1.70;;;11.40;63.70;;;;;;5037164;28;20349;-82
2022/10/10 00:09:32;;;;;;;2.77;1.93;;;11.40;63.80;;;;;;5056909;28;20028;-82
2022/10/10 00:11:58;;;;;;;2.53;1.70;;;11.30;64.00;;;;;;5056159;28;20420;-82
2022/10/10 00:14:24;;;;;;;2.80;1.50;;;11.30;64.00;;;;;;5057527;28;20172;-82
2022/10/10 00:16:49;;;;;;;3.03;1.60;;;11.20;63.90;;;;;;5055258;28;20192;-82
2022/10/10 00:19:15;;;;;;;1.97;1.40;;;11.20;64.10;;;;;;5055429;28;20023;-82
2022/10/10 00:21:41;;;;;;;1.60;1.40;;;11.20;64.10;;;;;;5049400;28;20496;-82
2022/10/10 00:24:06;;;;;;;2.40;1.80;;;11.20;64.30;;;;;;5055839;28;20449;-82
2022/10/10 00:26:32;;;;;;;2.50;1.42;;;11.10;64.30;;;;;;5043232;28;20078;-82
2022/10/10 00:28:58;;;;;;;2.37;1.50;;;11.10;64.30;;;;;;5058738;28;20025;-82
2022/10/10 00:31:24;;;;;;;2.65;1.63;;;11.00;64.20;;;;;;5052696;28;20740;-83
2022/10/10 00:33:50;;;;;;;3.10;1.60;;;11.00;64.40;;;;;;5053871;28;20515;-82
2022/10/10 00:36:16;;;;;;;2.43;1.57;;;11.00;65.20;;;;;;5068606;28;20029;-82
2022/10/10 00:38:42;;;;;;;2.53;1.52;;;10.90;64.60;;;;;;5036983;28;20043;-82
2022/10/10 00:41:07;;;;;;;2.78;1.77;;;10.90;64.60;;;;;;5063056;28;20028;-82
2022/10/10 00:43:34;;;;;;;3.53;2.30;;;10.80;64.60;;;;;;5064083;28;20386;-82
2022/10/10 00:45:59;;;;;;;3.75;2.38;;;10.80;64.80;;;;;;5063440;28;20028;-82
2022/10/10 00:48:30;;;;;;;3.90;2.20;;;10.80;65.00;;;;;;5060014;28;20067;-82
2022/10/10 00:51:15;;;;;;;3.60;2.07;;;10.80;65.30;;;;;;5059628;28;20610;-82
2022/10/10 00:53:47;;;;;;;3.30;2.03;;;10.70;66.30;;;;;;5047448;28;20228;-82
2022/10/10 00:56:16;;;;;;;3.28;2.00;;;10.70;65.40;;;;;;5067969;28;20117;-82
2022/10/10 00:58:46;;;;;;;3.47;1.90;;;10.60;65.20;;;;;;5048772;28;20192;-82
2022/10/10 01:01:12;;;;;;;2.65;1.77;;;10.60;65.40;;;;;;5055898;28;20582;-82
2022/10/10 01:03:38;;;;;;;3.33;2.20;;;10.60;65.20;;;;;;5056099;28;20308;-82
2022/10/10 01:06:05;;;;;;;2.38;1.67;;;10.50;65.40;;;;;;5055552;28;20154;-82
2022/10/10 01:08:31;;;;;;;3.38;2.13;;;10.50;65.40;;;;;;5050549;28;20052;-82
2022/10/10 01:11:17;;;;;;;3.20;1.63;;;10.50;65.50;;;;;;5043474;28;20028;-82
2022/10/10 01:14:12;;;;;;;4.07;1.98;;;10.40;66.00;;;;;;5064693;28;20678;-82
2022/10/10 01:16:59;;;;;;;3.03;2.00;;;10.40;66.70;;;;;;5052013;28;20283;-82
2022/10/10 01:19:52;;;;;;;2.72;1.70;;;10.40;65.90;;;;;;5066002;28;20555;-82
2022/10/10 01:22:28;;;;;;;2.75;1.85;;;10.30;66.90;;;;;;5061415;28;20316;-82
2022/10/10 01:25:07;;;;;;;3.33;1.80;;;10.30;65.70;;;;;;5036143;28;20463;-82
2022/10/10 01:27:44;;;;;;;2.83;1.45;;;10.30;66.10;;;;;;5050942;28;20664;-82
2022/10/10 01:30:16;;;;;;;2.80;1.60;;;10.30;67.40;;;;;;5059721;28;20028;-82
2022/10/10 01:33:03;;;;;;;3.25;1.50;;;10.20;65.90;;;;;;5053256;28;20028;-82
2022/10/10 01:35:49;;;;;;;2.70;1.67;;;10.20;66.90;;;;;;5046650;28;21010;-82
2022/10/10 01:38:24;;;;;;;2.27;1.37;;;10.20;66.80;;;;;;5060709;28;20053;-82
2022/10/10 01:41:00;;;;;;;2.70;1.65;;;10.10;66.40;;;;;;5035271;28;20350;-82
2022/10/10 01:43:25;;;;;;;2.33;1.40;;;10.10;66.50;;;;;;5053459;28;20275;-82
2022/10/10 01:45:52;;;;;;;2.57;1.60;;;10.10;65.90;;;;;;5053488;28;20013;-82
2022/10/10 01:48:22;;;;;;;2.42;1.67;;;10.10;66.00;;;;;;5043478;28;20107;-82
2022/10/10 01:51:00;;;;;;;3.50;1.50;;;10.10;66.20;;;;;;5072101;28;20040;-82
2022/10/10 01:53:50;;;;;;;2.10;1.50;;;10.00;66.60;;;;;;5040907;28;20431;-82
2022/10/10 01:56:40;;;;;;;1.98;1.50;;;10.00;66.50;;;;;;5007596;28;20126;-82
2022/10/10 01:59:32;;;;;;;2.10;1.40;;;10.00;67.50;;;;;;5054224;28;20056;-82
2022/10/10 02:02:22;;;;;;;2.28;1.42;;;9.90;66.80;;;;;;5042179;28;20059;-82
2022/10/10 02:05:07;;;;;;;1.80;1.40;;;9.90;67.60;;;;;;5060007;28;20380;-82
2022/10/10 02:07:57;;;;;;;1.70;1.15;;;9.90;67.50;;;;;;5050008;28;20451;-82
2022/10/10 02:10:28;;;;;;;2.13;1.35;;;9.90;66.80;;;;;;5060714;28;20298;-82
2022/10/10 02:12:59;;;;;;;2.07;1.30;;;9.80;66.70;;;;;;5050414;28;20024;-82
2022/10/10 02:15:29;;;;;;;1.85;1.35;;;9.80;66.60;;;;;;5056915;28;20279;-82
2022/10/10 02:17:56;;;;;;;2.17;1.25;;;9.80;66.70;;;;;;5054715;28;20043;-82
2022/10/10 02:20:24;;;;;;;1.75;1.20;;;9.80;66.80;;;;;;5054001;28;20031;-82
2022/10/10 02:22:52;;;;;;;2.13;1.40;;;9.70;66.90;;;;;;5042147;28;20480;-82
2022/10/10 02:25:23;;;;;;;1.60;1.17;;;9.70;66.80;;;;;;5046426;28;20028;-82
2022/10/10 02:28:03;;;;;;;2.97;1.50;;;9.70;67.10;;;;;;5058135;28;20021;-82
2022/10/10 02:30:32;;;;;;;2.28;1.40;;;9.70;68.10;;;;;;5057416;28;20059;-82
2022/10/10 02:33:00;;;;;;;2.38;1.20;;;9.70;67.00;;;;;;5062729;28;20028;-82
2022/10/10 02:35:31;;;;;;;2.30;1.60;;;9.70;67.10;;;;;;5047585;28;20267;-82
2022/10/10 02:38:00;;;;;;;2.83;1.30;;;9.70;67.30;;;;;;5057906;28;20481;-82
2022/10/10 02:40:29;;;;;;;1.70;1.35;;;9.70;67.40;;;;;;5058382;28;20873;-82
2022/10/10 02:42:58;;;;;;;1.67;1.30;;;9.70;67.70;;;;;;5033666;28;20476;-82
2022/10/10 02:45:24;;;;;;;1.35;1.17;;;9.60;67.60;;;;;;5063259;28;20413;-82
2022/10/10 02:47:51;;;;;;;2.03;1.23;;;9.70;67.60;;;;;;5051289;28;20511;-82
2022/10/10 02:50:17;;;;;;;2.80;1.33;;;9.70;67.80;;;;;;5056572;28;20040;-82
2022/10/10 02:52:42;;;;;;;2.40;1.23;;;9.70;68.00;;;;;;5057814;28;20067;-82
2022/10/10 02:55:08;;;;;;;3.70;1.40;;;9.70;68.10;;;;;;5062618;28;20543;-82
2022/10/10 02:57:34;;;;;;;2.20;1.53;;;9.70;68.20;;;;;;5061029;28;20450;-82
2022/10/10 03:00:00;;;;;;;1.58;1.13;;;9.80;68.20;;;;;;5054286;28;20040;-82
2022/10/10 03:02:26;;;;;;;1.70;1.23;;;9.80;68.30;;;;;;5050004;28;20123;-82
2022/10/10 03:04:52;;;;;;;2.13;1.20;;;9.80;68.40;;;;;;5057343;28;20017;-82
2022/10/10 03:07:17;;;;;;;2.53;1.27;;;9.80;68.50;;;;;;5041227;28;20033;-82
2022/10/10 03:09:43;;;;;;;1.63;1.20;;;9.80;68.60;;;;;;5036569;28;20019;-82
2022/10/10 03:12:09;;;;;;;2.42;1.20;;;9.80;68.60;;;;;;5046214;28;20128;-82
2022/10/10 03:14:34;;;;;;;1.60;1.13;;;9.80;68.70;;;;;;5027689;28;21106;-82
2022/10/10 03:17:00;;;;;;;1.70;1.30;;;9.80;68.70;;;;;;5054158;28;20694;-82
2022/10/10 03:19:26;;;;;;;1.90;1.20;;;9.80;68.60;;;;;;5045385;28;20251;-82
2022/10/10 03:21:51;;;;;;;2.10;1.08;;;9.80;68.70;;;;;;5040414;28;20558;-82
2022/10/10 03:24:17;;;;;;;1.63;1.20;;;9.80;68.80;;;;;;5051549;28;20508;-82
2022/10/10 03:26:43;;;;;;;1.70;1.40;;;9.80;68.70;;;;;;5068158;28;20028;-82
2022/10/10 03:29:08;;;;;;;2.03;1.40;;;9.80;68.70;;;;;;5065580;28;20024;-81
2022/10/10 03:31:34;;;;;;;2.87;1.30;;;9.80;68.80;;;;;;5052449;28;20028;-82
2022/10/10 03:33:59;;;;;;;2.00;1.40;;;9.80;68.80;;;;;;5059354;28;20536;-81
2022/10/10 03:36:26;;;;;;;2.00;1.20;;;9.80;68.90;;;;;;5060651;28;20104;-81
2022/10/10 03:38:51;;;;;;;1.90;1.30;;;9.80;68.90;;;;;;5064524;28;20355;-81
2022/10/10 03:41:17;;;;;;;1.58;1.10;;;9.80;68.90;;;;;;5048883;28;20163;-81
2022/10/10 03:43:42;;;;;;;1.27;1.00;;;9.80;68.90;;;;;;5067379;28;20020;-82
2022/10/10 03:46:08;;;;;;;1.80;1.20;;;9.80;69.00;;;;;;5044820;28;20496;-82
2022/10/10 03:48:34;;;;;;;2.22;1.17;;;9.80;69.90;;;;;;5057469;28;20063;-82
2022/10/10 03:51:00;;;;;;;1.50;1.10;;;9.80;69.20;;;;;;5041078;28;20031;-82
2022/10/10 03:53:26;;;;;;;1.57;1.00;;;9.80;69.20;;;;;;5038687;28;21470;-82
2022/10/10 03:55:52;;;;;;;3.03;1.58;;;9.70;69.20;;;;;;5058802;28;20040;-81
2022/10/10 03:58:18;;;;;;;1.50;1.20;;;9.80;69.30;;;;;;5047608;28;20289;-81
2022/10/10 04:00:43;;;;;;;2.00;1.00;;;9.70;69.30;;;;;;5073281;28;20451;-81
2022/10/10 04:03:09;;;;;;;1.93;1.10;;;9.80;69.40;;;;;;5038415;28;20085;-81
2022/10/10 04:05:36;;;;;;;1.70;1.10;;;9.70;69.40;;;;;;5039821;28;20728;-81
2022/10/10 04:08:03;;;;;;;2.13;1.50;;;9.80;69.60;;;;;;5056223;28;20028;-81
2022/10/10 04:10:28;;;;;;;2.20;1.10;;;9.70;69.60;;;;;;5040448;28;20032;-82
2022/10/10 04:12:54;;;;;;;2.53;1.20;;;9.70;69.50;;;;;;5064162;28;20413;-81
2022/10/10 04:15:19;;;;;;;1.77;1.20;;;9.70;69.60;;;;;;5045983;28;20020;-81
2022/10/10 04:17:45;;;;;;;2.35;1.00;;;9.70;69.70;;;;;;5040659;28;20020;-81
2022/10/10 04:20:11;;;;;;;2.00;1.10;;;9.70;69.70;;;;;;5038896;28;20240;-81
2022/10/10 04:22:36;;;;;;;1.55;1.00;;;9.70;69.90;;;;;;5065195;28;20124;-81
2022/10/10 04:25:02;;;;;;;1.70;1.17;;;9.80;70.00;;;;;;5044513;28;20028;-81
2022/10/10 04:27:28;;;;;;;2.60;1.20;;;9.80;70.10;;;;;;5061117;28;20035;-81
2022/10/10 04:29:53;;;;;;;1.30;1.10;;;9.70;70.10;;;;;;5060223;28;20586;-81
2022/10/10 04:32:19;;;;;;;1.50;1.10;;;9.70;70.10;;;;;;5046428;28;20016;-81
2022/10/10 04:34:45;;;;;;;1.27;0.93;;;9.80;70.20;;;;;;5056878;28;20357;-81
2022/10/10 04:37:10;;;;;;;2.10;1.08;;;9.80;70.30;;;;;;5067638;28;20313;-81
2022/10/10 04:39:36;;;;;;;2.00;1.00;;;9.70;70.30;;;;;;5057750;28;20282;-81
2022/10/10 04:42:01;;;;;;;1.50;0.97;;;9.70;70.50;;;;;;5059860;28;20271;-81
2022/10/10 04:44:27;;;;;;;1.80;0.90;;;9.80;70.60;;;;;;5061545;28;20163;-81
2022/10/10 04:46:53;;;;;;;1.47;0.90;;;9.80;70.60;;;;;;5068605;28;20096;-81
2022/10/10 04:49:18;;;;;;;1.92;1.10;;;9.80;70.60;;;;;;5038182;28;20484;-81
2022/10/10 04:51:44;;;;;;;1.53;0.83;;;9.80;70.70;;;;;;5059354;28;20228;-81
2022/10/10 04:54:10;;;;;;;1.70;1.07;;;9.80;70.70;;;;;;5066655;28;20058;-81
2022/10/10 04:56:35;;;;;;;1.33;0.90;;;9.80;70.90;;;;;;5062767;28;20059;-81
2022/10/10 04:59:01;;;;;;;1.10;0.80;;;9.80;71.00;;;;;;5057080;28;20037;-81
2022/10/10 05:01:26;;;;;;;2.00;1.10;;;9.80;71.10;;;;;;5050380;28;20040;-81
2022/10/10 05:03:53;;;;;;;1.57;1.10;;;9.80;71.20;;;;;;5048263;28;20028;-81
2022/10/10 05:06:19;;;;;;;1.35;0.85;;;9.80;71.30;;;;;;5030851;28;20169;-81
2022/10/10 05:08:45;;;;;;;2.17;1.00;;;9.90;71.30;;;;;;5059565;28;20384;-81
2022/10/10 05:11:10;;;;;;;2.27;1.00;;;9.90;71.40;;;;;;5053460;28;20227;-81
2022/10/10 05:13:36;;;;;;;1.33;1.00;;;9.90;71.50;;;;;;5061197;28;20025;-81
2022/10/10 05:16:01;;;;;;;2.00;1.37;;;9.90;71.80;;;;;;5056072;28;20397;-81
2022/10/10 05:18:27;;;;;;;1.90;1.00;;;10.00;71.90;;;;;;5069491;28;20073;-81
2022/10/10 05:20:52;;;;;;;1.33;1.00;;;9.90;72.00;;;;;;5030129;28;20075;-81
2022/10/10 05:23:18;;;;;;;2.17;1.30;;;10.00;72.20;;;;;;5055419;28;20013;-81
2022/10/10 05:25:48;;;;;;;1.40;0.95;;;10.00;72.30;;;;;;5055724;28;20123;-81
2022/10/10 05:28:14;;;;;;;4.10;2.00;;;10.00;72.30;;;;;;5045335;28;20078;-81
2022/10/10 05:30:40;;;;;;;3.05;1.48;;;10.00;72.30;;;;;;5060535;28;20425;-81
2022/10/10 05:33:06;;;;;;;3.15;1.77;;;10.10;72.50;;;;;;5056051;28;20031;-81
2022/10/10 05:35:31;;;;;;;3.17;1.60;;;10.10;72.50;;;;;;5050013;28;20040;-81
2022/10/10 05:37:57;;;;;;;2.40;1.40;;;10.10;72.50;;;;;;5047670;28;20042;-81
2022/10/10 05:40:23;;;;;;;1.83;1.10;;;10.10;72.60;;;;;;5058294;28;20039;-81
2022/10/10 05:42:48;;;;;;;1.93;1.00;;;10.10;72.60;;;;;;5050966;28;20024;-81
2022/10/10 05:45:14;;;;;;;2.88;1.20;;;10.10;72.70;;;;;;5057903;28;20537;-81
2022/10/10 05:47:40;;;;;;;2.20;1.30;;;10.20;72.70;;;;;;5061274;28;20032;-81
2022/10/10 05:50:11;;;;;;;1.60;1.13;;;10.10;72.60;;;;;;5073077;28;20437;-81
2022/10/10 05:52:37;;;;;;;1.75;0.98;;;10.10;72.80;;;;;;5030431;28;20604;-81
2022/10/10 05:55:02;;;;;;;2.03;0.90;;;10.10;72.70;;;;;;5056513;28;20027;-84
2022/10/10 05:57:28;;;;;;;1.65;1.13;;;10.10;72.70;;;;;;5059533;28;20387;-83
2022/10/10 05:59:54;;;;;;;1.80;1.00;;;10.10;72.70;;;;;;5054062;28;20423;-83
2022/10/10 06:02:20;;;;;;;1.25;0.85;;;10.10;72.80;;;;;;5049451;28;20030;-83
2022/10/10 06:04:45;;;;;;;1.50;0.90;;;10.10;72.80;;;;;;5044156;28;20016;-83
2022/10/10 06:07:11;;;;;;;1.60;1.10;;;10.00;72.80;;;;;;5037757;28;20083;-81
2022/10/10 06:09:36;;;;;;;1.35;1.00;;;10.10;72.90;;;;;;5059823;28;20020;-81
2022/10/10 06:12:02;;;;;;;1.23;0.93;;;10.00;72.80;;;;;;5036816;28;20040;-81
2022/10/10 06:14:28;;;;;;;1.95;1.20;;;10.00;72.80;;;;;;5037517;28;20093;-81
2022/10/10 06:16:53;;;;;;;1.70;0.90;;;10.00;73.00;;;;;;5056601;28;20029;-81
2022/10/10 06:19:20;;;;;;;2.57;1.20;;;10.00;73.00;;;;;;5046287;28;20209;-81
2022/10/10 06:21:47;;;;;;;1.60;1.20;;;10.00;73.10;;;;;;5045598;28;20364;-81
2022/10/10 06:24:13;;;;;;;1.33;1.00;;;10.00;73.10;;;;;;5055817;28;20028;-81
2022/10/10 06:26:38;;;;;;;1.63;1.23;;;10.00;73.20;;;;;;5046935;28;20031;-81
2022/10/10 06:29:04;;;;;;;2.23;1.20;;;10.00;73.30;;;;;;5055116;28;20082;-81
2022/10/10 06:31:29;;;;;;;2.23;1.07;;;10.00;73.40;;;;;;5049060;28;20301;-81
2022/10/10 06:33:55;;;;;;;1.90;1.10;;;10.00;73.40;;;;;;5053372;28;20025;-81
2022/10/10 06:36:21;;;;;;;1.77;0.90;;;10.00;73.40;;;;;;5042685;28;20091;-81
2022/10/10 06:38:46;;;;;;;1.55;1.02;;;10.00;74.30;;;;;;5047099;28;20064;-81
2022/10/10 06:41:12;;;;;;;1.80;1.10;;;10.10;73.60;;;;;;5046173;28;20252;-81
2022/10/10 06:43:38;;;;;;;1.50;0.90;;;10.10;73.70;;;;;;5063435;28;20040;-81
2022/10/10 06:46:04;;;;;;;1.70;1.00;;;10.10;73.70;;;;;;5071103;28;20219;-81
2022/10/10 06:48:30;;;;;;;1.63;1.02;;;10.10;73.80;;;;;;5059432;28;20044;-81
2022/10/10 06:51:03;;;;;;;1.80;1.13;;;10.20;74.10;;;;;;5055713;28;20016;-81
2022/10/10 06:53:30;;;;;;;1.73;1.08;;;10.20;74.70;;;;;;5043150;28;20064;-81
2022/10/10 06:55:55;;;;;;;1.87;1.03;;;10.30;74.60;;;;;;5038292;28;20020;-81
2022/10/10 06:58:23;;;;;;;1.95;1.05;;;10.30;74.80;;;;;;5056287;28;20039;-81
2022/10/10 07:00:50;;;;;;;2.50;1.20;;;10.40;75.10;;;;;;5054975;28;20042;-81
2022/10/10 07:03:16;;;;;;;2.00;1.10;;;10.50;75.40;;;;;;5046652;28;20083;-82
2022/10/10 07:05:42;;;;;;;2.17;1.10;;;10.60;75.70;;;;;;5040570;28;20017;-81
2022/10/10 07:08:09;;;;;;;2.10;1.10;;;10.70;75.90;;;;;;5033809;28;21265;-81
2022/10/10 07:10:35;;;;;;;2.43;1.33;;;10.90;76.50;;;;;;5056840;28;20020;-82
2022/10/10 07:13:01;;;;;;;2.80;1.38;;;11.10;76.90;;;;;;5059998;28;20297;-81
2022/10/10 07:15:26;;;;;;;4.05;1.40;;;11.20;77.10;;;;;;5058654;28;20547;-81
2022/10/10 07:17:57;;;;;;;2.87;1.07;;;11.40;77.60;;;;;;5041005;28;20039;-82
2022/10/10 07:20:23;;;;;;;1.80;1.10;;;11.70;78.40;;;;;;5051810;28;20131;-82
2022/10/10 07:22:49;;;;;;;3.03;1.30;;;11.90;78.80;;;;;;5045900;28;20132;-82
2022/10/10 07:25:15;;;;;;;1.75;1.10;;;12.30;79.90;;;;;;5058697;28;20224;-82
2022/10/10 07:27:41;;;;;;;3.40;1.40;;;12.70;81.00;;;;;;5044800;28;20020;-82
2022/10/10 07:30:07;;;;;;;3.67;1.65;;;13.20;82.00;;;;;;5053117;28;20161;-81
2022/10/10 07:32:33;;;;;;;5.47;2.67;;;13.70;82.10;;;;;;5056967;28;20016;-82
2022/10/10 07:34:59;;;;;;;6.63;2.20;;;14.10;81.20;;;;;;5050648;28;20481;-82
2022/10/10 07:37:24;;;;;;;5.07;2.30;;;14.60;80.30;;;;;;5043876;28;20017;-82
2022/10/10 07:39:53;;;;;;;4.37;2.03;;;14.90;79.40;;;;;;5039917;28;20031;-82
2022/10/10 07:42:20;;;;;;;4.95;1.90;;;15.30;79.80;;;;;;5056860;28;20085;-82
2022/10/10 07:44:45;;;;;;;3.63;1.80;;;15.70;80.30;;;;;;5056277;28;20020;-82
2022/10/10 07:47:11;;;;;;;3.97;1.77;;;16.20;81.10;;;;;;5039007;28;20233;-82
2022/10/10 07:49:37;;;;;;;3.40;1.60;;;16.60;80.90;;;;;;5058162;28;20623;-82
2022/10/10 07:52:03;;;;;;;3.67;1.63;;;17.00;79.50;;;;;;5033662;28;20340;-82
2022/10/10 07:54:30;;;;;;;3.67;1.75;;;17.40;78.80;;;;;;5053644;28;20125;-82
2022/10/10 07:56:56;;;;;;;3.97;1.90;;;17.70;77.80;;;;;;5037559;28;20115;-82
2022/10/10 07:59:22;;;;;;;2.80;1.40;;;17.90;76.20;;;;;;5062724;28;20051;-82
2022/10/10 08:01:48;;;;;;;3.67;1.80;;;18.00;75.20;;;;;;5057527;28;20178;-83
2022/10/10 08:04:14;;;;;;;4.22;1.80;;;18.10;75.00;;;;;;5078358;28;20637;-82
2022/10/10 08:06:39;;;;;;;4.03;1.60;;;18.20;74.70;;;;;;5058575;28;20063;-82
2022/10/10 08:09:05;;;;;;;4.43;1.90;;;18.30;74.50;;;;;;5054340;28;20308;-83
2022/10/10 08:11:31;;;;;;;2.70;1.60;;;18.40;74.10;;;;;;5048232;28;20035;-83
2022/10/10 08:13:56;;;;;;;3.90;1.80;;;18.40;73.60;;;;;;5051348;28;20112;-83
2022/10/10 08:16:22;;;;;;;4.03;1.50;;;18.40;73.30;;;;;;5078262;28;20021;-82
2022/10/10 08:18:48;;;;;;;3.03;1.50;;;18.40;72.80;;;;;;5042619;28;20024;-83
2022/10/10 08:21:14;;;;;;;3.90;1.60;;;18.40;72.50;;;;;;5049928;28;20600;-83
2022/10/10 08:23:41;;;;;;;3.60;1.52;;;18.40;72.20;;;;;;5044215;28;20023;-83
2022/10/10 08:26:09;;;;;;;3.38;1.70;;;18.40;72.00;;;;;;5050762;28;20146;-82
2022/10/10 08:28:36;;;;;;;3.97;1.67;;;18.30;71.80;;;;;;5055485;28;20021;-82
2022/10/10 08:31:14;;;;;;;3.13;1.80;;;18.30;71.60;;;;;;5039869;28;20226;-82
2022/10/10 08:33:41;;;;;;;3.45;1.90;;;18.20;71.40;;;;;;5053888;28;20016;-82
2022/10/10 08:36:11;;;;;;;3.38;1.70;;;18.20;71.60;;;;;;5037941;28;20516;-82
2022/10/10 08:38:37;;;;;;;5.28;1.77;;;18.10;72.30;;;;;;5063138;28;20026;-83
2022/10/10 08:41:10;;;;;;;3.80;1.47;;;18.20;73.10;;;;;;5036454;28;20226;-83
2022/10/10 08:44:31;;;;;;;4.07;1.60;;;18.40;74.60;;;;;;5038859;28;20340;-82
2022/10/10 08:47:04;;;;;;;3.42;1.50;;;18.70;75.40;;;;;;5015361;28;20075;-82
2022/10/10 08:49:46;;;;;;;3.63;1.70;;;19.30;78.30;;;;;;5047916;28;20504;-82
2022/10/10 08:52:25;;;;;;;3.85;1.48;;;19.80;78.50;;;;;;5059036;28;20264;-82
2022/10/10 08:54:52;;;;;;;5.27;1.63;;;20.50;78.90;;;;;;5050373;28;20320;-83
2022/10/10 08:57:28;;;;;;;4.45;1.70;;;21.00;77.00;;;;;;5054148;28;20198;-83
2022/10/10 09:00:03;;;;;;;5.20;1.73;;;21.40;74.10;;;;;;5046825;28;20036;-83
2022/10/10 09:02:40;;;;;;;5.03;1.80;;;21.70;73.30;;;;;;5042846;28;20017;-83
2022/10/10 09:05:14;;;;;;;5.55;2.10;;;21.90;72.00;;;;;;5047608;28;20031;-83
2022/10/10 09:07:48;;;;;;;4.33;1.60;;;22.00;70.40;;;;;;5062561;28;20017;-82
2022/10/10 09:10:29;;;;;;;3.47;1.85;;;22.00;69.20;;;;;;5042589;28;20524;-83
2022/10/10 09:13:13;;;;;;;3.80;1.60;;;21.90;67.50;;;;;;5038115;28;20032;-82
2022/10/10 09:16:00;;;;;;;3.33;1.58;;;21.80;67.10;;;;;;5042901;28;20043;-82
2022/10/10 09:18:51;;;;;;;5.72;1.80;;;21.60;67.10;;;;;;5061980;28;20024;-82
2022/10/10 09:21:33;;;;;;;4.47;1.90;;;21.40;66.80;;;;;;5042889;28;20024;-82
2022/10/10 09:24:04;;;;;;;3.03;1.70;;;21.30;66.70;;;;;;5041619;28;21007;-83
2022/10/10 09:26:38;;;;;;;3.53;1.50;;;21.10;67.20;;;;;;5047023;28;20997;-83
2022/10/10 09:29:19;;;;;;;2.97;1.67;;;21.10;67.80;;;;;;5051218;28;20256;-82
2022/10/10 09:31:50;;;;;;;5.00;1.77;;;21.10;69.00;;;;;;5062486;28;20044;-82
2022/10/10 09:34:31;;;;;;;6.33;2.00;;;21.30;69.90;;;;;;5067547;28;20028;-82
2022/10/10 09:36:59;;;;;;;2.67;1.48;;;21.40;69.20;;;;;;5054826;28;20474;-82
2022/10/10 09:39:36;;;;;;;2.88;1.70;;;21.60;69.60;;;;;;5061104;28;20091;-82
2022/10/10 09:42:08;;;;;;;2.95;1.60;;;21.80;68.70;;;;;;5047007;28;20032;-83
2022/10/10 09:44:34;;;;;;;5.80;1.70;;;21.90;68.90;;;;;;5032802;28;20028;-83
2022/10/10 09:46:59;;;;;;;3.07;1.50;;;22.10;69.50;;;;;;5056728;28;20271;-82
2022/10/10 09:49:25;;;;;;;3.72;1.38;;;22.30;70.60;;;;;;5066023;28;20058;-82
2022/10/10 09:51:51;;;;;;;2.73;1.40;;;22.70;72.10;;;;;;5059245;28;20052;-82
2022/10/10 09:54:18;;;;;;;3.85;1.60;;;23.20;73.40;;;;;;5071840;28;20554;-83
2022/10/10 09:56:48;;;;;;;3.07;1.50;;;23.80;72.70;;;;;;5054259;28;20040;-82
2022/10/10 09:59:45;;;;;;;3.00;1.33;;;24.30;70.30;;;;;;5068127;28;20308;-83
2022/10/10 10:02:26;;;;;;;3.58;1.50;;;24.80;67.80;;;;;;5057413;28;20032;-82
2022/10/10 10:04:53;;;;;;;3.55;1.50;;;25.20;66.70;;;;;;5052264;28;20024;-82
2022/10/10 10:07:20;;;;;;;3.88;1.65;;;25.60;67.70;;;;;;5041495;28;20027;-82
2022/10/10 10:10:15;;;;;;;2.73;1.27;;;25.70;66.50;;;;;;5058080;28;20020;-83
2022/10/10 10:12:43;;;;;;;2.22;1.30;;;26.00;62.50;;;;;;5060948;28;20043;-82
2022/10/10 10:15:24;;;;;;;4.00;1.50;;;26.10;64.20;;;;;;5048672;28;20023;-82
2022/10/10 10:18:29;;;;;;;2.05;1.30;;;26.30;61.50;;;;;;5052709;28;20087;-83
2022/10/10 10:21:07;;;;;;;2.92;1.45;;;26.40;60.90;;;;;;4999760;28;20172;-83
2022/10/10 10:23:34;;;;;;;3.67;1.50;;;26.60;61.40;;;;;;5002971;28;20124;-82
2022/10/10 10:26:02;;;;;;;3.03;1.10;;;26.70;63.40;;;;;;5032718;28;20047;-82
2022/10/10 10:28:28;;;;;;;2.72;1.50;;;26.90;62.40;;;;;;5050862;28;20005;-82
2022/10/10 10:30:56;;;;;;;3.92;1.35;;;27.00;62.00;;;;;;5065879;28;20286;-82
2022/10/10 10:33:52;;;;;;;2.80;1.40;;;27.20;61.70;;;;;;5045878;28;20032;-83
2022/10/10 10:36:38;;;;;;;2.67;1.50;;;27.50;60.10;;;;;;5070061;28;20040;-83
2022/10/10 10:39:22;;;;;;;2.72;1.40;;;27.80;62.30;;;;;;5053027;28;20125;-82
2022/10/10 10:42:14;;;;;;;2.80;1.80;;;28.20;60.90;;;;;;5043500;28;20111;-82
2022/10/10 10:44:48;;;;;;;2.83;1.40;;;28.60;59.80;;;;;;5058002;28;20060;-83
2022/10/10 10:47:40;;;;;;;2.72;1.40;;;29.00;60.00;;;;;;5047552;28;20020;-82
2022/10/10 10:50:29;;;;;;;2.80;1.53;;;29.40;58.40;;;;;;5050846;28;20648;-83
2022/10/10 10:53:07;;;;;;;3.83;2.00;;;29.80;57.30;;;;;;5039363;28;20754;-82
2022/10/10 10:55:39;;;;;;;3.03;1.85;;;30.20;58.50;;;;;;5048854;28;20280;-83
2022/10/10 10:58:43;;;;;;;3.40;1.60;;;30.50;56.70;;;;;;5053425;28;20037;-82
2022/10/10 11:01:21;;;;;;;3.28;1.75;;;30.60;54.20;;;;;;5052157;28;20040;-83
2022/10/10 11:04:10;;;;;;;4.07;1.90;;;30.80;54.20;;;;;;5045612;28;20073;-83
2022/10/10 11:06:47;;;;;;;2.92;1.50;;;30.80;52.50;;;;;;5040997;28;20126;-83
2022/10/10 11:09:41;;;;;;;3.08;1.80;;;30.80;53.00;;;;;;5066207;28;20089;-83
2022/10/10 11:12:42;;;;;;;2.60;1.45;;;30.80;52.50;;;;;;5040790;28;20064;-83
2022/10/10 11:15:23;;;;;;;4.28;1.40;;;30.90;52.50;;;;;;5059466;28;20032;-82
2022/10/10 11:17:55;;;;;;;2.30;1.50;;;31.20;53.00;;;;;;5049953;28;20091;-81
2022/10/10 11:20:29;;;;;;;4.43;1.60;;;31.40;53.90;;;;;;5044678;28;20114;-83
2022/10/10 11:23:21;;;;;;;1.35;1.17;;;31.60;51.30;;;;;;5055430;28;20029;-84
2022/10/10 11:26:02;;;;;;;2.60;1.30;;;31.50;49.60;;;;;;5052108;28;20063;-83
2022/10/10 11:28:42;;;;;;;3.10;1.55;;;31.30;48.40;;;;;;5035324;28;20222;-83
2022/10/10 11:31:29;;;;;;;2.43;1.20;;;31.00;47.80;;;;;;5070819;28;20474;-84
2022/10/10 11:34:10;;;;;;;3.90;1.60;;;30.70;47.20;;;;;;5049623;28;20038;-83
2022/10/10 11:36:41;;;;;;;2.95;1.38;;;30.40;47.40;;;;;;5064663;28;20024;-84
2022/10/10 11:39:41;;;;;;;2.58;1.33;;;30.10;47.90;;;;;;5049658;28;20493;-83
2022/10/10 11:42:21;;;;;;;2.70;1.20;;;29.80;47.60;;;;;;5048434;28;20033;-82
2022/10/10 11:45:03;;;;;;;2.97;1.37;;;29.50;48.20;;;;;;5075925;28;20539;-83
2022/10/10 11:47:45;;;;;;;2.15;1.30;;;29.40;49.20;;;;;;5052067;28;20165;-82
2022/10/10 11:50:20;;;;;;;3.22;1.25;;;29.30;49.30;;;;;;5062125;28;20522;-82
2022/10/10 11:52:53;;;;;;;2.80;1.52;;;29.30;49.40;;;;;;5058148;28;20119;-83
2022/10/10 11:55:25;;;;;;;2.13;1.23;;;29.20;49.50;;;;;;5062615;28;20266;-84
2022/10/10 11:58:20;;;;;;;2.57;1.20;;;29.10;48.60;;;;;;5063018;28;20055;-83
2022/10/10 12:00:53;;;;;;;2.33;1.20;;;29.00;48.50;;;;;;5055771;28;20126;-85
2022/10/10 12:03:19;;;;;;;2.80;1.30;;;28.80;48.30;;;;;;5060767;28;20021;-83
2022/10/10 12:06:04;;;;;;;2.92;1.40;;;28.70;48.50;;;;;;5048991;28;20399;-84
2022/10/10 12:08:41;;;;;;;2.70;1.33;;;28.50;47.90;;;;;;5047442;28;20266;-84
2022/10/10 12:11:32;;;;;;;3.05;1.23;;;28.20;47.50;;;;;;5052786;28;20036;-84
2022/10/10 12:13:59;;;;;;;5.20;1.45;;;28.00;47.50;;;;;;5068746;28;20503;-83
2022/10/10 12:16:30;;;;;;;5.18;1.50;;;27.70;47.90;;;;;;5053901;28;20028;-82
2022/10/10 12:19:12;;;;;;;3.40;1.50;;;27.50;48.00;;;;;;5061964;28;20028;-83
2022/10/10 12:21:57;;;;;;;3.40;1.40;;;27.20;48.00;;;;;;5028791;28;20599;-82
2022/10/10 12:24:25;;;;;;;3.78;1.40;;;26.90;48.30;;;;;;5042429;28;20032;-82
2022/10/10 12:26:53;;;;;;;2.80;1.20;;;26.70;48.70;;;;;;5065263;28;20121;-83
2022/10/10 12:30:07;;;;;;;2.60;1.27;;;26.50;49.00;;;;;;5046862;28;20033;-84
2022/10/10 12:32:40;;;;;;;3.33;1.40;;;26.30;49.10;;;;;;5058677;28;20063;-84
2022/10/10 12:35:25;;;;;;;2.93;1.40;;;26.20;49.20;;;;;;5059187;28;20314;-83
2022/10/10 12:38:03;;;;;;;3.42;1.33;;;26.00;49.10;;;;;;5051766;28;20035;-83
2022/10/10 12:40:30;;;;;;;4.68;1.30;;;25.80;49.50;;;;;;5045101;28;20039;-84
2022/10/10 12:42:55;;;;;;;3.95;1.45;;;25.70;49.50;;;;;;5064191;28;20439;-83
2022/10/10 12:45:30;;;;;;;2.93;1.33;;;25.60;49.50;;;;;;5062643;28;20248;-83
2022/10/10 12:48:04;;;;;;;2.53;1.30;;;25.50;49.90;;;;;;5057799;28;20232;-83
2022/10/10 12:50:42;;;;;;;3.50;1.50;;;25.40;50.20;;;;;;5065142;28;20047;-83
2022/10/10 12:53:11;;;;;;;3.72;1.50;;;25.30;50.20;;;;;;5042776;28;20887;-83
2022/10/10 12:55:41;;;;;;;3.70;1.50;;;25.20;50.30;;;;;;5070171;28;20455;-83
2022/10/10 12:58:14;;;;;;;2.90;1.50;;;25.10;50.60;;;;;;5046520;28;20024;-84
2022/10/10 13:00:42;;;;;;;2.50;1.38;;;25.00;50.70;;;;;;5076479;28;20028;-82
2022/10/10 13:03:26;;;;;;;3.53;1.63;;;25.00;50.90;;;;;;5059244;28;20969;-84
2022/10/10 13:05:52;;;;;;;3.45;1.50;;;25.00;51.30;;;;;;5040788;28;20461;-83
2022/10/10 13:08:23;;;;;;;3.37;1.40;;;24.90;51.20;;;;;;5054519;28;20473;-82
2022/10/10 13:11:09;;;;;;;3.05;1.60;;;24.90;51.40;;;;;;5043920;28;20028;-82
2022/10/10 13:13:35;;;;;;;2.60;1.83;;;24.80;51.60;;;;;;5042367;28;20661;-84